createdAt,value
2022-10-09T00:01:22.456Z,3.42
2022-10-09T00:03:53.868Z,3.13
2022-10-09T00:06:30.634Z,3.05
2022-10-09T00:11:28.946Z,3.40
2022-10-09T00:13:56.915Z,3.80
2022-10-09T00:16:26.369Z,2.85
2022-10-09T00:18:54.725Z,2.67
2022-10-09T00:21:28.000Z,2.90
2022-10-09T00:23:57.819Z,3.50
2022-10-09T00:26:26.060Z,3.67
2022-10-09T00:28:53.985Z,3.25
2022-10-09T00:31:22.309Z,3.30
2022-10-09T00:33:49.924Z,3.35
2022-10-09T00:36:22.921Z,3.13
2022-10-09T00:38:51.424Z,3.13
2022-10-09T00:41:21.467Z,3.28
2022-10-09T00:43:51.400Z,2.92
2022-10-09T00:46:33.889Z,3.00
2022-10-09T00:49:17.486Z,2.65
2022-10-09T00:51:47.885Z,3.55
2022-10-09T00:54:17.898Z,2.92
2022-10-09T00:56:45.253Z,2.72
2022-10-09T00:59:13.281Z,3.00
2022-10-09T01:01:42.014Z,2.85
2022-10-09T01:04:09.934Z,3.00
2022-10-09T01:07:12.100Z,3.10
2022-10-09T01:09:42.517Z,2.70
2022-10-09T01:12:12.434Z,3.30
2022-10-09T01:14:58.769Z,3.15
2022-10-09T01:17:44.046Z,2.97
2022-10-09T01:20:53.060Z,3.33
2022-10-09T01:23:59.616Z,3.20
2022-10-09T01:26:45.495Z,3.15
2022-10-09T01:29:15.530Z,3.58
2022-10-09T01:31:46.668Z,3.13
2022-10-09T01:34:15.846Z,2.80
2022-10-09T01:36:44.719Z,3.10
2022-10-09T01:39:18.149Z,3.13
2022-10-09T01:41:48.153Z,3.30
2022-10-09T01:44:20.599Z,2.70
2022-10-09T01:46:48.258Z,3.03
2022-10-09T01:49:34.389Z,3.00
2022-10-09T01:52:20.513Z,3.58
2022-10-09T01:55:22.210Z,2.63
2022-10-09T01:57:57.539Z,2.58
2022-10-09T02:00:26.447Z,2.78
2022-10-09T02:02:56.342Z,2.65
2022-10-09T02:05:28.009Z,2.78
2022-10-09T02:07:58.429Z,2.90
2022-10-09T02:10:26.791Z,3.30
2022-10-09T02:12:59.632Z,2.90
2022-10-09T02:15:36.936Z,3.22
2022-10-09T02:18:11.237Z,3.25
2022-10-09T02:20:45.101Z,3.30
2022-10-09T02:23:14.196Z,3.08
2022-10-09T02:25:41.833Z,2.55
2022-10-09T02:28:09.824Z,3.40
2022-10-09T02:30:48.253Z,2.70
2022-10-09T02:33:15.676Z,2.90
2022-10-09T02:35:43.662Z,2.78
2022-10-09T02:38:10.657Z,2.95
2022-10-09T02:40:41.266Z,3.47
2022-10-09T02:43:08.453Z,3.08
2022-10-09T02:45:35.573Z,3.20
2022-10-09T02:48:03.295Z,3.15
2022-10-09T02:50:32.779Z,3.63
2022-10-09T02:52:59.906Z,3.92
2022-10-09T02:55:27.825Z,3.85
2022-10-09T02:57:57.112Z,3.30
2022-10-09T03:03:08.698Z,3.55
2022-10-09T03:05:36.199Z,3.42
2022-10-09T03:08:03.487Z,3.70
2022-10-09T03:10:30.633Z,3.40
2022-10-09T03:13:00.212Z,3.42
2022-10-09T03:15:27.203Z,3.58
2022-10-09T03:17:54.569Z,3.70
2022-10-09T03:20:22.094Z,3.78
2022-10-09T03:22:49.622Z,3.80
2022-10-09T03:25:16.991Z,3.33
2022-10-09T03:27:44.449Z,3.20
2022-10-09T03:30:11.753Z,3.88
2022-10-09T03:32:41.408Z,3.00
2022-10-09T03:35:08.965Z,3.50
2022-10-09T03:37:36.168Z,3.35
2022-10-09T03:40:03.467Z,3.70
2022-10-09T03:42:33.332Z,3.28
2022-10-09T03:45:00.345Z,3.38
2022-10-09T03:47:29.621Z,2.97
2022-10-09T03:49:57.083Z,3.22
2022-10-09T03:52:24.140Z,3.00
2022-10-09T03:54:51.382Z,3.22
2022-10-09T03:57:19.047Z,3.20
2022-10-09T03:59:46.048Z,3.20
2022-10-09T04:02:13.220Z,3.40
2022-10-09T04:04:40.599Z,3.13
2022-10-09T04:07:07.587Z,2.95
2022-10-09T04:09:34.908Z,2.85
2022-10-09T04:12:04.831Z,2.78
2022-10-09T04:14:31.858Z,3.05
2022-10-09T04:16:59.066Z,2.88
2022-10-09T04:19:28.851Z,3.15
2022-10-09T04:21:55.868Z,4.05
2022-10-09T04:24:27.537Z,3.13
2022-10-09T04:26:54.932Z,3.13
2022-10-09T04:29:21.930Z,3.00
2022-10-09T04:31:49.538Z,3.15
2022-10-09T04:34:19.138Z,2.83
2022-10-09T04:36:46.389Z,3.05
2022-10-09T04:39:13.649Z,3.58
2022-10-09T04:41:41.155Z,4.95
2022-10-09T04:44:08.250Z,3.97
2022-10-09T04:46:35.470Z,3.83
2022-10-09T04:49:03.265Z,3.72
2022-10-09T04:51:32.559Z,2.97
2022-10-09T04:54:00.859Z,2.83
2022-10-09T04:56:28.474Z,3.30
2022-10-09T04:58:55.855Z,4.07
2022-10-09T05:01:26.474Z,3.17
2022-10-09T05:03:54.169Z,3.88
2022-10-09T05:06:25.007Z,3.30
2022-10-09T05:08:52.851Z,3.45
2022-10-09T05:11:22.905Z,2.65
2022-10-09T05:13:52.951Z,2.80
2022-10-09T05:16:26.512Z,2.78
2022-10-09T05:18:56.171Z,2.90
2022-10-09T05:21:28.489Z,2.90
2022-10-09T05:23:56.214Z,2.70
2022-10-09T05:26:27.124Z,4.40
2022-10-09T05:28:54.960Z,4.10
2022-10-09T05:31:29.609Z,3.08
2022-10-09T05:33:59.638Z,2.33
2022-10-09T05:36:27.060Z,1.83
2022-10-09T05:38:56.426Z,2.38
2022-10-09T05:41:23.910Z,2.30
2022-10-09T05:43:51.717Z,2.20
2022-10-09T05:46:24.295Z,1.92
2022-10-09T05:48:53.727Z,2.05
2022-10-09T05:51:24.716Z,2.38
2022-10-09T05:53:52.541Z,2.90
2022-10-09T05:56:22.955Z,2.03
2022-10-09T05:58:58.012Z,2.95
2022-10-09T06:01:27.787Z,1.75
2022-10-09T06:03:59.705Z,2.30
2022-10-09T06:06:29.612Z,2.17
2022-10-09T06:08:58.337Z,1.67
2022-10-09T06:11:32.202Z,2.35
2022-10-09T06:14:06.232Z,2.00
2022-10-09T06:16:39.442Z,2.50
2022-10-09T06:19:08.409Z,3.10
2022-10-09T06:21:35.427Z,2.58
2022-10-09T06:24:04.831Z,2.63
2022-10-09T06:26:32.867Z,2.00
2022-10-09T06:29:03.396Z,2.30
2022-10-09T06:31:32.903Z,2.08
2022-10-09T06:34:03.684Z,1.80
2022-10-09T06:36:34.137Z,1.75
2022-10-09T06:41:34.917Z,2.17
2022-10-09T06:44:05.137Z,2.33
2022-10-09T06:46:40.457Z,2.10
2022-10-09T06:49:10.052Z,2.08
2022-10-09T06:51:37.552Z,2.25
2022-10-09T06:54:10.710Z,3.17
2022-10-09T06:56:38.001Z,3.60
2022-10-09T06:59:06.821Z,2.65
2022-10-09T07:01:37.002Z,2.00
2022-10-09T07:04:07.395Z,2.17
2022-10-09T07:06:39.205Z,2.25
2022-10-09T07:11:41.314Z,2.22
2022-10-09T07:14:10.066Z,2.92
2022-10-09T07:16:40.175Z,3.90
2022-10-09T07:19:08.778Z,2.55
2022-10-09T07:21:39.892Z,2.55
2022-10-09T07:24:10.366Z,6.45
2022-10-09T07:26:40.809Z,12.52
2022-10-09T07:29:13.548Z,8.15
2022-10-09T07:31:41.009Z,3.10
2022-10-09T07:34:08.550Z,2.38
2022-10-09T07:36:36.079Z,2.30
2022-10-09T07:39:05.235Z,1.95
2022-10-09T07:41:32.355Z,1.90
2022-10-09T07:43:59.763Z,2.38
2022-10-09T07:46:32.999Z,2.40
2022-10-09T07:49:01.591Z,2.33
2022-10-09T07:51:30.644Z,2.28
2022-10-09T07:54:00.456Z,2.00
2022-10-09T07:56:37.733Z,2.25
2022-10-09T07:59:12.101Z,2.15
2022-10-09T08:01:39.996Z,1.80
2022-10-09T08:04:07.670Z,2.00
2022-10-09T08:06:35.387Z,2.30
2022-10-09T08:09:07.167Z,2.28
2022-10-09T08:11:34.924Z,1.80
2022-10-09T08:14:02.065Z,1.90
2022-10-09T08:16:31.269Z,1.83
2022-10-09T08:19:01.771Z,1.95
2022-10-09T08:21:31.602Z,2.70
2022-10-09T08:23:59.927Z,2.10
2022-10-09T08:26:31.307Z,2.92
2022-10-09T08:29:03.256Z,1.85
2022-10-09T08:31:32.510Z,1.90
2022-10-09T08:34:03.159Z,1.65
2022-10-09T08:36:34.930Z,2.25
2022-10-09T08:39:04.667Z,2.25
2022-10-09T08:41:52.089Z,2.08
2022-10-09T08:44:31.207Z,1.60
2022-10-09T08:47:18.286Z,2.55
2022-10-09T08:50:13.891Z,2.53
2022-10-09T08:52:56.861Z,2.00
2022-10-09T08:55:43.558Z,1.70
2022-10-09T08:58:16.462Z,3.50
2022-10-09T09:00:54.259Z,7.43
2022-10-09T09:03:30.661Z,3.05
2022-10-09T09:06:32.327Z,4.38
2022-10-09T09:09:26.990Z,2.20
2022-10-09T09:12:37.955Z,1.98
2022-10-09T09:15:24.713Z,5.60
2022-10-09T09:17:56.775Z,9.75
2022-10-09T09:20:40.117Z,3.55
2022-10-09T09:23:16.211Z,2.50
2022-10-09T09:25:48.545Z,2.65
2022-10-09T09:28:28.096Z,3.08
2022-10-09T09:31:06.178Z,2.05
2022-10-09T09:33:57.645Z,1.90
2022-10-09T09:36:24.767Z,1.70
2022-10-09T09:41:41.792Z,1.90
2022-10-09T09:44:14.151Z,1.80
2022-10-09T09:46:42.234Z,2.00
2022-10-09T09:49:26.167Z,1.90
2022-10-09T09:51:58.333Z,1.67
2022-10-09T09:54:30.649Z,2.40
2022-10-09T09:57:18.281Z,1.77
2022-10-09T09:59:50.240Z,1.60
2022-10-09T10:02:20.141Z,1.40
2022-10-09T10:05:01.284Z,1.45
2022-10-09T10:07:38.818Z,1.90
2022-10-09T10:10:07.739Z,1.10
2022-10-09T10:12:41.006Z,1.80
2022-10-09T10:15:27.915Z,1.88
2022-10-09T10:17:57.791Z,3.50
2022-10-09T10:20:28.863Z,3.13
2022-10-09T10:22:57.670Z,2.05
2022-10-09T10:25:33.625Z,2.33
2022-10-09T10:28:07.264Z,1.77
2022-10-09T10:30:36.735Z,1.42
2022-10-09T10:33:14.999Z,1.70
2022-10-09T10:35:44.212Z,2.25
2022-10-09T10:38:32.451Z,1.50
2022-10-09T10:41:15.016Z,2.38
2022-10-09T10:43:56.102Z,1.35
2022-10-09T10:46:37.574Z,1.63
2022-10-09T10:49:07.540Z,1.60
2022-10-09T10:51:58.200Z,1.95
2022-10-09T10:54:25.712Z,1.80
2022-10-09T10:57:09.005Z,1.48
2022-10-09T10:59:51.398Z,2.08
2022-10-09T11:02:47.057Z,2.65
2022-10-09T11:05:23.576Z,1.70
2022-10-09T11:08:00.394Z,3.75
2022-10-09T11:10:48.653Z,2.10
2022-10-09T11:13:33.826Z,4.03
2022-10-09T11:16:09.774Z,2.70
2022-10-09T11:18:59.309Z,3.92
2022-10-09T11:21:42.078Z,1.75
2022-10-09T11:24:28.731Z,1.80
2022-10-09T11:27:11.231Z,2.00
2022-10-09T11:29:52.928Z,1.88
2022-10-09T11:32:26.902Z,1.90
2022-10-09T11:35:07.197Z,1.60
2022-10-09T11:37:37.655Z,1.88
2022-10-09T11:40:16.904Z,1.45
2022-10-09T11:42:49.341Z,1.80
2022-10-09T11:45:34.106Z,1.50
2022-10-09T11:48:10.158Z,4.47
2022-10-09T11:50:48.550Z,7.40
2022-10-09T11:53:18.183Z,2.70
2022-10-09T11:55:45.671Z,2.05
2022-10-09T11:58:19.046Z,2.30
2022-10-09T12:00:49.104Z,2.08
2022-10-09T12:03:35.836Z,2.00
2022-10-09T12:06:17.010Z,2.08
2022-10-09T12:09:07.294Z,1.40
2022-10-09T12:11:37.185Z,2.40
2022-10-09T12:14:12.046Z,2.08
2022-10-09T12:16:46.097Z,2.55
2022-10-09T12:19:42.769Z,3.53
2022-10-09T12:22:18.255Z,1.95
2022-10-09T12:24:50.697Z,1.27
2022-10-09T12:27:28.650Z,1.95
2022-10-09T12:30:02.963Z,2.08
2022-10-09T12:32:35.425Z,2.17
2022-10-09T12:35:25.397Z,1.35
2022-10-09T12:37:53.077Z,1.50
2022-10-09T12:40:26.690Z,1.80
2022-10-09T12:42:56.114Z,1.52
2022-10-09T12:45:27.818Z,1.80
2022-10-09T12:48:00.380Z,2.63
2022-10-09T12:50:33.279Z,2.20
2022-10-09T12:55:42.191Z,2.22
2022-10-09T12:58:22.852Z,2.40
2022-10-09T13:00:59.020Z,2.00
2022-10-09T13:04:02.968Z,1.40
2022-10-09T13:06:47.330Z,2.53
2022-10-09T13:09:27.781Z,1.75
2022-10-09T13:12:01.801Z,1.73
2022-10-09T13:14:41.292Z,2.42
2022-10-09T13:17:24.313Z,2.78
2022-10-09T13:19:54.026Z,2.13
2022-10-09T13:22:26.126Z,1.60
2022-10-09T13:24:56.804Z,2.08
2022-10-09T13:27:28.406Z,1.65
2022-10-09T13:29:56.687Z,2.13
2022-10-09T13:32:24.626Z,2.92
2022-10-09T13:34:52.739Z,3.08
2022-10-09T13:37:21.414Z,4.43
2022-10-09T13:39:51.224Z,1.98
2022-10-09T13:42:22.267Z,2.00
2022-10-09T13:44:50.106Z,3.60
2022-10-09T13:47:21.958Z,1.80
2022-10-09T13:49:51.824Z,1.98
2022-10-09T13:52:19.006Z,2.47
2022-10-09T13:54:46.097Z,1.70
2022-10-09T13:57:13.734Z,3.10
2022-10-09T13:59:41.007Z,1.70
2022-10-09T14:02:09.798Z,2.10
2022-10-09T14:04:40.037Z,1.80
2022-10-09T14:07:07.163Z,1.80
2022-10-09T14:09:34.747Z,2.05
2022-10-09T14:12:02.921Z,2.05
2022-10-09T14:14:30.231Z,2.00
2022-10-09T14:16:57.315Z,2.58
2022-10-09T14:19:25.322Z,1.80
2022-10-09T14:21:55.393Z,2.20
2022-10-09T14:24:22.992Z,1.90
2022-10-09T14:26:51.876Z,1.60
2022-10-09T14:29:19.309Z,1.30
2022-10-09T14:31:46.436Z,1.40
2022-10-09T14:34:14.252Z,1.70
2022-10-09T14:36:41.593Z,1.60
2022-10-09T14:39:09.547Z,2.10
2022-10-09T14:41:38.079Z,1.85
2022-10-09T14:44:05.875Z,1.55
2022-10-09T14:46:33.438Z,2.00
2022-10-09T14:49:01.145Z,1.88
2022-10-09T14:51:29.474Z,1.92
2022-10-09T14:54:01.788Z,2.10
2022-10-09T14:56:32.328Z,1.90
2022-10-09T14:59:02.082Z,2.10
2022-10-09T15:01:29.778Z,2.30
2022-10-09T15:03:57.279Z,1.77
2022-10-09T15:06:27.634Z,1.85
2022-10-09T15:09:00.405Z,1.73
2022-10-09T15:11:30.960Z,1.90
2022-10-09T15:13:58.272Z,1.65
2022-10-09T15:16:26.015Z,1.83
2022-10-09T15:18:57.089Z,2.17
2022-10-09T15:21:29.988Z,1.98
2022-10-09T15:23:59.521Z,2.00
2022-10-09T15:26:28.602Z,1.80
2022-10-09T15:28:55.658Z,2.13
2022-10-09T15:31:32.413Z,2.28
2022-10-09T15:34:00.027Z,2.00
2022-10-09T15:36:34.412Z,2.63
2022-10-09T15:39:02.357Z,2.75
2022-10-09T15:41:31.956Z,3.20
2022-10-09T15:44:02.757Z,6.00
2022-10-09T15:46:32.990Z,3.45
2022-10-09T15:49:02.806Z,3.35
2022-10-09T15:51:29.984Z,2.45
2022-10-09T15:53:59.412Z,2.88
2022-10-09T15:56:27.659Z,3.53
2022-10-09T15:58:58.042Z,2.53
2022-10-09T16:01:25.691Z,2.97
2022-10-09T16:03:56.938Z,2.60
2022-10-09T16:06:24.298Z,2.35
2022-10-09T16:08:54.754Z,2.72
2022-10-09T16:11:25.176Z,2.83
2022-10-09T16:13:54.768Z,3.40
2022-10-09T16:16:25.027Z,3.97
2022-10-09T16:18:52.832Z,3.25
2022-10-09T16:21:30.486Z,3.03
2022-10-09T16:23:59.699Z,4.28
2022-10-09T16:26:30.693Z,3.58
2022-10-09T16:29:00.200Z,3.60
2022-10-09T16:31:35.107Z,3.90
2022-10-09T16:34:07.512Z,4.93
2022-10-09T16:36:35.611Z,4.77
2022-10-09T16:39:02.813Z,6.18
2022-10-09T16:41:32.507Z,7.35
2022-10-09T16:43:59.961Z,7.65
2022-10-09T16:49:07.039Z,9.27
2022-10-09T16:51:35.972Z,14.18
2022-10-09T16:54:06.277Z,12.70
2022-10-09T16:56:37.177Z,12.85
2022-10-09T16:59:06.898Z,11.35
2022-10-09T17:01:37.256Z,14.52
2022-10-09T17:04:04.949Z,12.93
2022-10-09T17:06:32.492Z,12.18
2022-10-09T17:08:59.693Z,13.25
2022-10-09T17:11:29.221Z,12.27
2022-10-09T17:13:59.085Z,11.05
2022-10-09T17:16:30.128Z,10.65
2022-10-09T17:18:57.761Z,8.95
2022-10-09T17:21:29.350Z,15.57
2022-10-09T17:24:02.095Z,12.50
2022-10-09T17:26:30.078Z,11.38
2022-10-09T17:29:01.058Z,11.82
2022-10-09T17:31:31.844Z,9.95
2022-10-09T17:34:01.615Z,10.25
2022-10-09T17:36:32.709Z,8.50
2022-10-09T17:39:00.098Z,8.77
2022-10-09T17:41:30.133Z,11.23
2022-10-09T17:43:58.471Z,11.05
2022-10-09T17:46:27.570Z,12.63
2022-10-09T17:48:55.457Z,12.63
2022-10-09T17:51:25.337Z,25.13
2022-10-09T17:53:59.565Z,21.50
2022-10-09T17:56:28.484Z,30.77
2022-10-09T17:59:00.086Z,32.00
2022-10-09T18:01:27.886Z,18.85
2022-10-09T18:03:55.297Z,16.70
2022-10-09T18:06:23.232Z,14.70
2022-10-09T18:08:52.272Z,15.52
2022-10-09T18:11:20.043Z,18.27
2022-10-09T18:13:48.272Z,21.27
2022-10-09T18:16:18.666Z,23.90
2022-10-09T18:18:49.237Z,22.20
2022-10-09T18:21:17.445Z,23.77
2022-10-09T18:23:46.812Z,25.33
2022-10-09T18:26:18.398Z,29.17
2022-10-09T18:28:48.462Z,28.83
2022-10-09T18:31:19.069Z,25.90
2022-10-09T18:33:49.551Z,23.90
2022-10-09T18:36:25.347Z,22.75
2022-10-09T18:38:55.426Z,24.00
2022-10-09T18:41:23.924Z,24.17
2022-10-09T18:43:51.958Z,24.00
2022-10-09T18:46:25.138Z,28.15
2022-10-09T18:48:54.408Z,24.88
2022-10-09T18:51:24.255Z,24.98
2022-10-09T18:53:59.956Z,25.60
2022-10-09T18:56:30.867Z,25.02
2022-10-09T18:59:00.031Z,23.02
2022-10-09T19:01:30.135Z,28.10
2022-10-09T19:03:57.423Z,25.10
2022-10-09T19:06:24.763Z,29.13
2022-10-09T19:08:52.434Z,26.30
2022-10-09T19:11:19.988Z,25.77
2022-10-09T19:13:47.285Z,29.25
2022-10-09T19:16:15.378Z,25.80
2022-10-09T19:18:43.243Z,29.65
2022-10-09T19:21:13.889Z,32.97
2022-10-09T19:23:41.925Z,34.20
2022-10-09T19:26:12.145Z,30.75
2022-10-09T19:28:39.939Z,32.05
2022-10-09T19:31:09.378Z,31.33
2022-10-09T19:33:38.104Z,38.70
2022-10-09T19:36:06.641Z,102.47
2022-10-09T19:38:33.941Z,80.47
2022-10-09T19:41:09.605Z,45.83
2022-10-09T19:43:37.537Z,42.05
2022-10-09T19:46:11.259Z,37.55
2022-10-09T19:48:41.313Z,36.85
2022-10-09T19:51:13.504Z,36.28
2022-10-09T19:53:40.976Z,29.38
2022-10-09T19:56:23.259Z,29.70
2022-10-09T19:58:53.285Z,28.50
2022-10-09T20:01:25.875Z,24.60
2022-10-09T20:04:00.475Z,21.70
2022-10-09T20:06:32.438Z,23.10
2022-10-09T20:09:00.390Z,25.80
2022-10-09T20:11:28.321Z,28.25
2022-10-09T20:13:58.853Z,20.65
2022-10-09T20:16:27.329Z,22.80
2022-10-09T20:18:56.067Z,20.60
2022-10-09T20:21:26.363Z,20.25
2022-10-09T20:23:57.087Z,21.50
2022-10-09T20:26:25.366Z,19.67
2022-10-09T20:28:55.278Z,17.95
2022-10-09T20:31:27.048Z,18.10
2022-10-09T20:33:58.097Z,18.60
2022-10-09T20:36:25.821Z,13.35
2022-10-09T20:38:58.818Z,14.75
2022-10-09T20:41:27.766Z,13.98
2022-10-09T20:43:57.134Z,14.48
2022-10-09T20:46:25.965Z,14.02
2022-10-09T20:48:53.501Z,18.27
2022-10-09T20:51:21.427Z,16.52
2022-10-09T20:53:58.245Z,17.23
2022-10-09T20:56:28.349Z,19.10
2022-10-09T20:58:59.058Z,18.02
2022-10-09T21:01:29.300Z,20.67
2022-10-09T21:03:59.385Z,22.63
2022-10-09T21:06:29.442Z,37.30
2022-10-09T21:08:58.136Z,21.67
2022-10-09T21:11:25.763Z,20.85
2022-10-09T21:13:55.223Z,17.60
2022-10-09T21:16:26.086Z,15.65
2022-10-09T21:18:58.144Z,13.35
2022-10-09T21:21:27.047Z,15.45
2022-10-09T21:23:59.305Z,16.25
2022-10-09T21:26:27.751Z,16.38
2022-10-09T21:28:59.282Z,15.07
2022-10-09T21:31:29.231Z,11.88
2022-10-09T21:34:01.244Z,12.63
2022-10-09T21:36:51.208Z,11.55
2022-10-09T21:39:31.443Z,15.50
2022-10-09T21:41:58.872Z,16.00
2022-10-09T21:44:26.291Z,14.48
2022-10-09T21:46:53.512Z,17.10
2022-10-09T21:49:27.038Z,22.38
2022-10-09T21:51:54.787Z,21.40
2022-10-09T21:54:22.431Z,20.63
2022-10-09T21:56:49.946Z,19.17
2022-10-09T21:59:19.326Z,22.90
2022-10-09T22:01:46.676Z,18.40
2022-10-09T22:04:13.885Z,16.80
2022-10-09T22:06:41.086Z,13.15
2022-10-09T22:09:08.751Z,13.57
2022-10-09T22:11:38.359Z,14.25
2022-10-09T22:14:05.843Z,15.05
2022-10-09T22:16:33.121Z,12.30
2022-10-09T22:19:00.936Z,14.05
2022-10-09T22:21:28.903Z,13.52
2022-10-09T22:23:56.219Z,20.77
2022-10-09T22:26:26.007Z,18.10
2022-10-09T22:28:53.224Z,20.50
2022-10-09T22:31:22.460Z,19.40
2022-10-09T22:33:57.096Z,17.63
2022-10-09T22:36:27.359Z,16.65
2022-10-09T22:39:00.249Z,17.45
2022-10-09T22:43:59.020Z,15.32
2022-10-09T22:46:30.021Z,17.80
2022-10-09T22:48:57.536Z,14.45
2022-10-09T22:51:26.383Z,14.52
2022-10-09T22:53:55.436Z,15.25
2022-10-09T22:56:27.114Z,15.65
2022-10-09T22:58:56.662Z,13.25
2022-10-09T23:01:31.407Z,11.63
2022-10-09T23:04:05.019Z,10.75
2022-10-09T23:09:00.624Z,11.98
2022-10-09T23:11:29.870Z,9.65
2022-10-09T23:14:00.349Z,11.15
2022-10-09T23:16:29.254Z,10.77
2022-10-09T23:18:58.222Z,8.82
2022-10-09T23:21:26.891Z,11.27
2022-10-09T23:23:54.424Z,15.38
2022-10-09T23:26:24.648Z,14.52
2022-10-09T23:28:54.012Z,14.35
2022-10-09T23:31:21.679Z,11.30
2022-10-09T23:33:49.642Z,9.25
2022-10-09T23:36:21.236Z,10.00
2022-10-09T23:38:51.416Z,9.00
2022-10-09T23:41:21.707Z,9.45
2022-10-09T23:43:52.586Z,8.13
2022-10-09T23:46:25.288Z,6.10
2022-10-09T23:48:53.203Z,5.23
2022-10-09T23:51:22.122Z,6.28
2022-10-09T23:53:49.467Z,7.30
2022-10-09T23:56:21.974Z,6.97
2022-10-09T23:58:49.927Z,7.40
